Time;durP1;ratioP1;P1;durP2;ratioP2;P2;SDS_P1;SDS_P2;PMS_P1;PMS_P2;Temp;Humidity;BMP_temperature;BMP_pressure;BME280_temperature;BME280_humidity;BME280_pressure;Samples;Min_cycle;Max_cycle;Signal;HPM_P1;HPM_P2
2022/05/11 00:00:46;;;;;;;3.70;1.10;;;21.50;58.90;;;;;;5012857;28;20050;-57
2022/05/11 00:03:12;;;;;;;3.58;1.20;;;21.50;58.80;;;;;;5013366;28;20073;-57
2022/05/11 00:05:37;;;;;;;3.97;1.20;;;21.50;58.80;;;;;;5012137;28;20084;-58
2022/05/11 00:08:03;;;;;;;4.35;1.25;;;21.50;58.80;;;;;;5012615;28;20121;-57
2022/05/11 00:10:30;;;;;;;3.85;1.33;;;21.50;58.80;;;;;;5012993;28;20050;-58
2022/05/11 00:12:57;;;;;;;3.63;1.23;;;21.50;58.90;;;;;;5011659;28;20104;-57
2022/05/11 00:15:23;;;;;;;2.90;1.00;;;21.50;58.80;;;;;;5013164;28;20088;-57
2022/05/11 00:17:48;;;;;;;4.53;1.60;;;21.40;58.80;;;;;;5012366;28;20085;-57
2022/05/11 00:20:14;;;;;;;3.50;1.10;;;21.40;58.80;;;;;;5012205;28;20057;-57
2022/05/11 00:22:40;;;;;;;5.35;1.50;;;21.40;58.80;;;;;;5012524;28;20050;-57
2022/05/11 00:25:07;;;;;;;3.92;1.20;;;21.50;58.90;;;;;;5012852;28;20048;-57
2022/05/11 00:27:32;;;;;;;4.13;1.20;;;21.50;58.80;;;;;;5011708;28;20129;-57
2022/05/11 00:29:58;;;;;;;2.75;1.10;;;21.50;58.90;;;;;;5012451;28;20565;-58
2022/05/11 00:32:25;;;;;;;3.28;1.10;;;21.50;58.90;;;;;;5010708;28;20046;-57
2022/05/11 00:34:51;;;;;;;2.60;1.17;;;21.50;58.80;;;;;;5012377;28;20053;-57
2022/05/11 00:37:17;;;;;;;2.75;1.25;;;21.50;58.80;;;;;;5012660;28;20104;-58
2022/05/11 00:39:42;;;;;;;3.38;1.30;;;21.50;58.80;;;;;;5011648;28;20042;-58
2022/05/11 00:42:08;;;;;;;3.25;1.10;;;21.50;59.60;;;;;;5012546;28;20073;-58
2022/05/11 00:44:33;;;;;;;2.47;1.10;;;21.50;58.80;;;;;;5011628;28;20068;-57
2022/05/11 00:47:09;;;;;;;3.15;1.00;;;21.40;58.80;;;;;;5011347;28;20088;-56
2022/05/11 00:49:38;;;;;;;4.60;1.30;;;21.40;58.80;;;;;;5012738;28;20045;-56
2022/05/11 00:52:16;;;;;;;4.53;0.98;;;21.40;58.80;;;;;;5011175;28;20046;-55
2022/05/11 00:54:52;;;;;;;4.35;1.58;;;21.40;58.80;;;;;;5010600;28;20445;-55
2022/05/11 00:57:23;;;;;;;2.42;1.17;;;21.40;58.80;;;;;;5012422;28;20473;-55
2022/05/11 00:59:49;;;;;;;3.05;0.98;;;21.40;58.80;;;;;;5012136;28;20054;-56
2022/05/11 01:02:14;;;;;;;4.18;1.27;;;21.40;58.80;;;;;;5010102;28;20100;-55
2022/05/11 01:04:41;;;;;;;3.10;1.10;;;21.40;58.80;;;;;;5012257;28;20085;-56
2022/05/11 01:07:08;;;;;;;3.10;1.20;;;21.40;58.80;;;;;;5012380;28;20092;-55
2022/05/11 01:09:34;;;;;;;3.00;1.00;;;21.30;58.70;;;;;;5010386;28;20124;-55
2022/05/11 01:11:59;;;;;;;3.33;1.00;;;21.40;58.80;;;;;;5011953;28;20129;-56
2022/05/11 01:14:27;;;;;;;3.22;1.10;;;21.40;58.80;;;;;;5011273;28;20054;-55
2022/05/11 01:16:54;;;;;;;2.80;1.15;;;21.30;58.70;;;;;;5011794;28;20049;-55
2022/05/11 01:19:31;;;;;;;3.08;1.02;;;21.30;58.70;;;;;;5011165;28;20050;-56
2022/05/11 01:22:03;;;;;;;3.58;1.05;;;21.30;58.70;;;;;;5011025;28;20409;-55
2022/05/11 01:24:38;;;;;;;3.25;1.00;;;21.30;58.80;;;;;;5011106;28;20025;-56
2022/05/11 01:27:26;;;;;;;2.20;0.90;;;21.30;58.80;;;;;;5011017;28;20053;-55
2022/05/11 01:29:51;;;;;;;2.05;1.00;;;21.30;58.70;;;;;;5011345;28;20041;-55
2022/05/11 01:32:18;;;;;;;2.65;1.00;;;21.30;58.80;;;;;;5012207;28;20052;-56
2022/05/11 01:34:44;;;;;;;4.18;1.05;;;21.30;58.70;;;;;;5011630;28;20497;-55
2022/05/11 01:37:09;;;;;;;2.42;1.02;;;21.30;58.80;;;;;;5011356;28;20069;-55
2022/05/11 01:39:35;;;;;;;2.08;1.10;;;21.30;58.70;;;;;;5012124;28;20049;-55
2022/05/11 01:42:00;;;;;;;3.45;1.20;;;21.30;58.80;;;;;;5011836;28;20089;-55
2022/05/11 01:44:26;;;;;;;3.22;1.33;;;21.30;58.70;;;;;;5011353;28;20045;-55
2022/05/11 01:46:53;;;;;;;2.00;1.00;;;21.30;58.70;;;;;;5011740;28;20450;-55
2022/05/11 01:49:19;;;;;;;2.60;1.40;;;21.30;58.70;;;;;;5011914;28;20409;-55
2022/05/11 01:51:45;;;;;;;4.10;1.00;;;21.30;58.70;;;;;;5010747;28;20486;-55
2022/05/11 01:54:11;;;;;;;1.75;0.90;;;21.30;58.70;;;;;;5012206;28;20080;-55
2022/05/11 01:56:37;;;;;;;3.55;0.85;;;21.30;58.70;;;;;;5015501;28;20471;-55
2022/05/11 01:59:02;;;;;;;2.30;0.93;;;21.30;58.70;;;;;;5014350;28;20053;-55
2022/05/11 02:01:29;;;;;;;2.42;1.00;;;21.30;58.70;;;;;;5015132;28;20038;-56
2022/05/11 02:03:54;;;;;;;2.67;0.90;;;21.30;58.70;;;;;;5014505;28;20096;-55
2022/05/11 02:09:04;;;;;;;2.10;0.90;;;21.30;58.70;;;;;;5015126;28;20050;-55
2022/05/11 02:11:30;;;;;;;2.90;1.33;;;21.20;58.70;;;;;;5014547;28;20045;-56
2022/05/11 02:13:57;;;;;;;3.60;1.30;;;21.20;58.60;;;;;;5014618;28;20060;-55
2022/05/11 02:16:23;;;;;;;2.88;0.85;;;21.30;58.60;;;;;;5014114;28;20046;-55
2022/05/11 02:18:48;;;;;;;2.00;0.88;;;21.20;58.60;;;;;;5013905;28;20046;-56
2022/05/11 02:21:14;;;;;;;2.65;1.00;;;21.20;58.70;;;;;;5015214;28;20037;-55
2022/05/11 02:23:40;;;;;;;3.40;1.20;;;21.20;58.70;;;;;;5014765;28;20045;-56
2022/05/11 02:26:07;;;;;;;3.17;1.15;;;21.20;58.60;;;;;;5014336;28;20037;-55
2022/05/11 02:28:33;;;;;;;2.22;1.02;;;21.20;58.60;;;;;;5015020;28;20069;-55
2022/05/11 02:31:00;;;;;;;1.83;0.82;;;21.20;58.60;;;;;;5014739;28;20081;-55
2022/05/11 02:33:25;;;;;;;1.55;0.85;;;21.20;58.70;;;;;;5014023;28;20535;-55
2022/05/11 02:35:51;;;;;;;1.95;0.82;;;21.20;58.70;;;;;;5014630;28;20045;-56
2022/05/11 02:38:35;;;;;;;1.70;0.95;;;21.20;58.60;;;;;;5014860;28;20176;-55
2022/05/11 02:41:01;;;;;;;1.75;0.93;;;21.20;58.60;;;;;;5013845;28;20073;-55
2022/05/11 02:43:27;;;;;;;1.85;0.90;;;21.20;58.70;;;;;;5014531;28;20378;-55
2022/05/11 02:45:52;;;;;;;2.50;1.10;;;21.20;58.70;;;;;;5014570;28;20034;-55
2022/05/11 02:48:20;;;;;;;1.70;0.93;;;21.20;58.70;;;;;;5014259;28;20482;-55
2022/05/11 02:50:48;;;;;;;2.97;1.10;;;21.20;58.70;;;;;;5014451;28;20042;-55
2022/05/11 02:53:14;;;;;;;2.45;1.10;;;21.20;58.70;;;;;;5013886;28;20135;-55
2022/05/11 02:55:44;;;;;;;2.35;1.08;;;21.20;58.70;;;;;;5013969;28;20082;-55
2022/05/11 02:58:11;;;;;;;1.90;0.98;;;21.20;58.70;;;;;;5014385;28;20042;-55
2022/05/11 03:00:37;;;;;;;2.58;0.80;;;21.20;58.70;;;;;;5013646;28;20049;-56
2022/05/11 03:03:03;;;;;;;1.77;0.90;;;21.20;58.70;;;;;;5012946;28;20052;-55
2022/05/11 03:05:28;;;;;;;1.85;0.90;;;21.10;58.60;;;;;;5014519;28;20048;-56
2022/05/11 03:07:54;;;;;;;2.47;1.08;;;21.20;58.60;;;;;;5012718;28;20125;-55
2022/05/11 03:10:20;;;;;;;2.35;1.00;;;21.10;58.60;;;;;;5014215;28;20084;-55
2022/05/11 03:12:45;;;;;;;2.25;0.98;;;21.20;58.60;;;;;;5013778;28;20061;-55
2022/05/11 03:15:11;;;;;;;4.22;0.90;;;21.20;58.60;;;;;;5013146;28;20050;-55
2022/05/11 03:17:37;;;;;;;1.90;0.80;;;21.10;58.60;;;;;;5014145;28;20052;-55
2022/05/11 03:20:07;;;;;;;3.65;1.10;;;21.10;58.60;;;;;;5013520;28;20046;-55
2022/05/11 03:22:33;;;;;;;2.35;0.98;;;21.20;58.70;;;;;;5012290;28;20042;-55
2022/05/11 03:24:58;;;;;;;1.67;0.70;;;21.10;58.70;;;;;;5013528;28;20054;-55
2022/05/11 03:27:24;;;;;;;1.80;0.98;;;21.10;58.60;;;;;;5014156;28;20132;-55
2022/05/11 03:29:51;;;;;;;2.83;1.13;;;21.10;58.70;;;;;;5012880;28;20141;-56
2022/05/11 03:35:01;;;;;;;2.17;1.00;;;21.10;58.70;;;;;;5013527;28;20053;-55
2022/05/11 03:37:27;;;;;;;1.98;1.25;;;21.10;58.60;;;;;;5012948;28;20051;-55
2022/05/11 03:39:52;;;;;;;1.30;0.90;;;21.10;58.70;;;;;;5013382;28;20050;-56
2022/05/11 03:42:18;;;;;;;1.80;0.85;;;21.10;58.70;;;;;;5012576;28;20049;-55
2022/05/11 03:44:44;;;;;;;1.67;0.93;;;21.10;58.70;;;;;;5013584;28;20104;-55
2022/05/11 03:47:10;;;;;;;1.50;0.77;;;21.10;58.70;;;;;;5013612;28;20073;-55
2022/05/11 03:49:35;;;;;;;1.52;0.90;;;21.10;58.70;;;;;;5012930;28;20053;-55
2022/05/11 03:52:01;;;;;;;2.53;1.00;;;21.10;58.70;;;;;;5013088;28;20057;-56
2022/05/11 03:54:27;;;;;;;2.88;1.08;;;21.10;58.70;;;;;;5013176;28;20124;-55
2022/05/11 03:56:52;;;;;;;1.95;0.90;;;21.10;58.70;;;;;;5012420;28;20037;-56
2022/05/11 03:59:18;;;;;;;2.85;0.98;;;21.10;58.70;;;;;;5013469;28;20049;-55
2022/05/11 04:01:43;;;;;;;2.33;0.90;;;21.10;58.70;;;;;;5009219;28;20134;-55
2022/05/11 04:04:09;;;;;;;2.67;0.70;;;21.10;58.70;;;;;;5011749;28;20129;-55
2022/05/11 04:06:34;;;;;;;2.92;0.93;;;21.10;58.70;;;;;;5012583;28;20033;-55
2022/05/11 04:09:00;;;;;;;1.75;0.73;;;21.10;58.70;;;;;;5011405;28;20045;-55
2022/05/11 04:11:26;;;;;;;1.83;0.90;;;21.00;58.70;;;;;;5012167;28;20481;-56
2022/05/11 04:13:52;;;;;;;1.65;0.75;;;21.00;59.30;;;;;;5012502;28;20471;-56
2022/05/11 04:16:17;;;;;;;1.90;0.90;;;21.10;58.70;;;;;;5013288;28;20061;-56
2022/05/11 04:18:43;;;;;;;1.13;0.80;;;21.10;58.70;;;;;;5011069;28;20490;-55
2022/05/11 04:21:09;;;;;;;3.50;0.90;;;21.00;58.60;;;;;;5013193;28;20038;-56
2022/05/11 04:23:35;;;;;;;1.30;0.70;;;21.00;58.60;;;;;;5012887;28;20077;-55
2022/05/11 04:26:01;;;;;;;1.63;0.88;;;21.00;58.70;;;;;;5011873;28;20120;-56
2022/05/11 04:28:26;;;;;;;2.22;1.08;;;21.00;58.70;;;;;;5013013;28;20569;-56
2022/05/11 04:31:00;;;;;;;1.42;0.77;;;21.00;58.70;;;;;;5012768;28;20501;-55
2022/05/11 04:33:25;;;;;;;1.30;0.70;;;21.00;58.70;;;;;;5012303;28;20053;-55
2022/05/11 04:35:51;;;;;;;1.50;0.80;;;21.00;58.70;;;;;;5012556;28;20046;-55
2022/05/11 04:38:16;;;;;;;2.08;0.77;;;21.00;58.70;;;;;;5012798;28;20046;-55
2022/05/11 04:40:43;;;;;;;1.77;0.90;;;21.00;58.70;;;;;;5011590;28;20049;-55
2022/05/11 04:43:09;;;;;;;2.65;0.90;;;21.00;58.70;;;;;;5012933;28;20050;-55
2022/05/11 04:45:42;;;;;;;2.00;0.82;;;21.00;58.70;;;;;;5011685;28;20462;-56
2022/05/11 04:48:08;;;;;;;1.83;1.00;;;21.00;58.70;;;;;;5012665;28;20121;-55
2022/05/11 04:50:36;;;;;;;1.70;0.93;;;21.00;58.70;;;;;;5012305;28;20133;-55
2022/05/11 04:53:01;;;;;;;1.42;0.80;;;21.00;58.70;;;;;;5011737;28;20038;-55
2022/05/11 04:55:27;;;;;;;1.70;0.82;;;21.00;58.70;;;;;;5012599;28;20436;-55
2022/05/11 04:57:52;;;;;;;2.05;0.80;;;21.00;58.70;;;;;;5012302;28;20041;-55
2022/05/11 05:00:18;;;;;;;2.38;0.90;;;21.00;58.70;;;;;;5010463;28;20077;-55
2022/05/11 05:02:44;;;;;;;1.10;0.70;;;21.00;58.70;;;;;;5012458;28;20417;-55
2022/05/11 05:05:10;;;;;;;1.92;0.90;;;21.00;58.70;;;;;;5012732;28;20050;-55
2022/05/11 05:07:36;;;;;;;1.90;0.80;;;21.00;58.70;;;;;;5011789;28;20443;-56
2022/05/11 05:10:03;;;;;;;1.83;0.90;;;21.00;58.70;;;;;;5011838;28;20085;-55
2022/05/11 05:12:28;;;;;;;1.85;0.90;;;21.00;58.70;;;;;;5012447;28;20062;-55
2022/05/11 05:14:54;;;;;;;1.50;0.68;;;21.00;58.70;;;;;;5011395;28;20057;-56
2022/05/11 05:17:19;;;;;;;2.03;1.00;;;21.00;58.70;;;;;;5012521;28;20038;-56
2022/05/11 05:19:45;;;;;;;2.17;0.70;;;21.00;58.70;;;;;;5012339;28;20507;-56
2022/05/11 05:22:10;;;;;;;1.80;0.80;;;20.90;58.60;;;;;;5011527;28;20042;-55
2022/05/11 05:24:36;;;;;;;1.88;0.80;;;21.00;58.70;;;;;;5011900;28;20053;-55
2022/05/11 05:27:02;;;;;;;1.35;0.80;;;21.00;59.40;;;;;;5012304;28;20085;-55
2022/05/11 05:32:12;;;;;;;2.65;0.95;;;20.90;58.60;;;;;;5015918;28;20406;-55
2022/05/11 05:34:38;;;;;;;1.60;0.90;;;20.90;58.60;;;;;;5015892;28;20494;-55
2022/05/11 05:37:04;;;;;;;1.63;0.80;;;21.00;58.70;;;;;;5015354;28;20045;-55
2022/05/11 05:39:29;;;;;;;1.63;0.70;;;20.90;58.60;;;;;;5015590;28;20128;-56
2022/05/11 05:41:55;;;;;;;1.67;0.80;;;20.90;58.60;;;;;;5014982;28;20065;-56
2022/05/11 05:44:20;;;;;;;1.75;0.70;;;21.00;58.70;;;;;;5015972;28;20509;-56
2022/05/11 05:46:46;;;;;;;1.52;0.90;;;21.00;58.70;;;;;;5015614;28;20042;-55
2022/05/11 05:49:12;;;;;;;1.13;0.70;;;21.00;58.70;;;;;;5014809;28;20056;-54
2022/05/11 05:51:38;;;;;;;2.75;1.08;;;20.90;58.60;;;;;;5015859;28;20042;-55
2022/05/11 05:54:03;;;;;;;2.00;0.85;;;20.90;58.60;;;;;;5015457;28;20041;-55
2022/05/11 05:56:29;;;;;;;2.42;1.15;;;21.00;58.70;;;;;;5015130;28;20501;-55
2022/05/11 05:59:01;;;;;;;1.83;0.93;;;21.00;58.70;;;;;;5015207;28;20052;-55
2022/05/11 06:01:27;;;;;;;3.83;1.10;;;21.00;58.80;;;;;;5015569;28;20046;-55
2022/05/11 06:03:52;;;;;;;4.82;1.10;;;21.00;58.90;;;;;;5014536;28;20042;-55
2022/05/11 06:06:19;;;;;;;2.65;1.00;;;21.10;58.90;;;;;;5015494;28;20040;-55
2022/05/11 06:08:45;;;;;;;2.53;1.00;;;21.10;59.10;;;;;;5013458;28;20474;-55
2022/05/11 06:11:11;;;;;;;4.15;1.30;;;21.10;59.00;;;;;;5014458;28;20091;-55
2022/05/11 06:13:36;;;;;;;2.03;0.98;;;21.10;59.00;;;;;;5015237;28;20064;-55
2022/05/11 06:16:05;;;;;;;2.95;1.20;;;21.10;59.00;;;;;;5015100;28;20042;-55
2022/05/11 06:18:30;;;;;;;;;;;21.10;59.10;;;;;;5029404;28;20080;-56
2022/05/11 06:20:56;;;;;;;6.65;1.15;;;21.10;59.20;;;;;;5014752;28;19921;-55
2022/05/11 06:23:22;;;;;;;2.40;0.90;;;21.10;59.00;;;;;;5011774;28;20064;-55
2022/05/11 06:25:50;;;;;;;2.88;1.23;;;21.20;59.20;;;;;;5007476;28;20045;-55
2022/05/11 06:28:16;;;;;;;3.05;1.10;;;21.20;59.30;;;;;;5014355;28;20113;-55
2022/05/11 06:30:42;;;;;;;3.30;0.90;;;21.20;59.30;;;;;;5014707;28;20049;-55
2022/05/11 06:33:07;;;;;;;3.88;1.05;;;21.20;59.30;;;;;;5013450;28;20040;-55
2022/05/11 06:35:33;;;;;;;4.25;1.35;;;21.20;59.40;;;;;;5014669;28;20073;-55
2022/05/11 06:38:03;;;;;;;1.70;0.98;;;21.20;59.50;;;;;;5014142;28;20050;-55
2022/05/11 06:40:28;;;;;;;2.42;1.20;;;21.20;59.50;;;;;;5014474;28;20050;-55
2022/05/11 06:42:54;;;;;;;4.00;1.20;;;21.30;59.50;;;;;;5013747;28;20053;-55
2022/05/11 06:45:19;;;;;;;2.40;1.13;;;21.30;59.70;;;;;;5014364;28;20048;-55
2022/05/11 06:47:46;;;;;;;1.40;0.88;;;21.30;59.80;;;;;;5014245;28;20049;-55
2022/05/11 06:50:12;;;;;;;3.47;1.20;;;21.30;59.80;;;;;;5014835;28;20065;-55
2022/05/11 06:52:38;;;;;;;2.28;1.27;;;21.30;59.90;;;;;;5013938;28;20449;-55
2022/05/11 07:00:32;;;;;;;3.70;1.23;;;21.30;60.00;;;;;;5013978;28;20053;-55
2022/05/11 07:02:58;;;;;;;2.75;1.00;;;21.40;60.10;;;;;;5014141;28;20534;-55
2022/05/11 07:05:23;;;;;;;6.47;1.40;;;21.40;60.10;;;;;;5014557;28;20153;-55
2022/05/11 07:07:50;;;;;;;2.72;1.10;;;21.40;60.20;;;;;;5013456;28;20397;-56
2022/05/11 07:10:16;;;;;;;3.20;0.90;;;21.50;60.30;;;;;;5014142;28;20046;-54
2022/05/11 07:12:46;;;;;;;3.05;1.30;;;21.50;60.30;;;;;;5013605;28;20072;-55
2022/05/11 07:15:12;;;;;;;2.53;1.13;;;21.40;60.20;;;;;;5013760;28;20184;-55
2022/05/11 07:17:39;;;;;;;2.67;1.10;;;21.50;60.20;;;;;;5014238;28;20041;-57
2022/05/11 07:20:07;;;;;;;6.57;1.02;;;21.50;60.20;;;;;;5014120;28;20053;-57
2022/05/11 07:22:33;;;;;;;3.92;1.13;;;21.50;60.20;;;;;;5013590;28;20044;-57
2022/05/11 07:24:59;;;;;;;1.85;1.10;;;21.50;60.10;;;;;;5013501;28;20058;-57
2022/05/11 07:27:25;;;;;;;3.78;1.30;;;21.50;60.00;;;;;;5013079;28;20087;-57
2022/05/11 07:29:51;;;;;;;2.65;0.90;;;21.50;60.10;;;;;;5013762;28;20240;-57
2022/05/11 07:32:17;;;;;;;3.45;1.00;;;21.50;60.00;;;;;;5014079;28;20038;-57
2022/05/11 07:34:42;;;;;;;3.80;0.98;;;21.50;59.80;;;;;;5012989;28;20046;-57
2022/05/11 07:37:08;;;;;;;2.17;0.90;;;21.60;59.90;;;;;;5013997;28;20038;-57
2022/05/11 07:39:33;;;;;;;6.68;1.27;;;21.60;59.90;;;;;;5013562;28;20138;-57
2022/05/11 07:41:59;;;;;;;3.05;1.48;;;21.60;60.00;;;;;;5012496;28;20046;-57
2022/05/11 07:44:25;;;;;;;12.07;1.30;;;21.60;60.10;;;;;;5013848;28;20042;-57
2022/05/11 07:46:51;;;;;;;5.35;1.40;;;21.60;60.20;;;;;;5007732;28;20449;-56
2022/05/11 07:49:18;;;;;;;3.40;1.02;;;21.70;60.20;;;;;;5010380;28;20053;-56
2022/05/11 07:51:45;;;;;;;3.72;1.33;;;21.70;60.30;;;;;;5010213;28;20081;-57
2022/05/11 07:54:13;;;;;;;2.73;1.20;;;21.70;60.30;;;;;;5003492;28;20053;-57
2022/05/11 08:02:08;;;;;;;3.05;0.98;;;21.80;60.40;;;;;;5013081;28;20470;-57
2022/05/11 08:04:34;;;;;;;5.35;1.10;;;21.80;60.40;;;;;;5012527;28;20038;-57
2022/05/11 08:07:00;;;;;;;3.28;0.90;;;21.80;60.40;;;;;;5013138;28;20054;-58
2022/05/11 08:09:26;;;;;;;3.00;0.95;;;21.80;60.40;;;;;;5012435;28;20456;-57
2022/05/11 08:11:52;;;;;;;2.55;1.00;;;21.70;60.30;;;;;;5012559;28;20516;-57
2022/05/11 08:14:18;;;;;;;4.60;1.00;;;21.80;60.30;;;;;;5013193;28;20050;-57
2022/05/11 08:16:43;;;;;;;2.42;1.08;;;21.80;60.20;;;;;;5012185;28;20046;-57
2022/05/11 08:19:09;;;;;;;2.55;1.17;;;21.80;60.20;;;;;;5012753;28;20386;-57
2022/05/11 08:21:35;;;;;;;3.25;0.93;;;21.80;60.90;;;;;;5013135;28;20383;-57
2022/05/11 08:24:01;;;;;;;4.32;1.00;;;21.80;60.30;;;;;;5011790;28;20050;-57
2022/05/11 08:26:26;;;;;;;4.93;1.30;;;21.80;60.30;;;;;;5012615;28;20048;-57
2022/05/11 08:28:52;;;;;;;2.33;0.93;;;21.80;60.20;;;;;;5012588;28;20038;-57
2022/05/11 08:34:02;;;;;;;3.30;1.10;;;21.80;60.20;;;;;;5012275;28;20043;-57
2022/05/11 08:36:28;;;;;;;4.30;0.98;;;21.80;60.20;;;;;;5013025;28;20363;-57
2022/05/11 08:38:55;;;;;;;5.60;1.05;;;21.80;60.30;;;;;;5011549;28;20041;-55
2022/05/11 08:41:23;;;;;;;6.20;0.90;;;21.80;60.20;;;;;;5012992;28;20053;-55
2022/05/11 08:43:49;;;;;;;5.05;1.00;;;21.80;60.10;;;;;;5011796;28;20053;-55
2022/05/11 08:46:38;;;;;;;3.17;0.98;;;21.80;60.00;;;;;;5011954;28;20046;-59
2022/05/11 08:49:31;;;;;;;4.82;1.00;;;21.80;59.90;;;;;;5012091;28;20050;-56
2022/05/11 08:52:04;;;;;;;2.83;0.82;;;21.80;59.80;;;;;;5011462;28;20824;-55
2022/05/11 08:54:35;;;;;;;4.20;0.90;;;21.80;59.80;;;;;;5012400;28;20046;-56
2022/05/11 08:57:01;;;;;;;3.25;0.95;;;21.80;59.60;;;;;;5012504;28;20060;-55
2022/05/11 08:59:29;;;;;;;3.05;0.80;;;21.80;59.60;;;;;;5012082;28;20440;-55
2022/05/11 09:02:25;;;;;;;3.88;0.75;;;21.80;59.50;;;;;;5011324;28;20057;-55
2022/05/11 09:04:53;;;;;;;5.30;1.20;;;21.90;59.40;;;;;;5008851;28;20390;-56
2022/05/11 09:07:18;;;;;;;6.35;0.90;;;21.90;59.40;;;;;;5015674;28;20397;-56
2022/05/11 09:09:44;;;;;;;5.90;1.55;;;21.90;59.30;;;;;;5016160;28;20042;-56
2022/05/11 09:12:11;;;;;;;6.25;1.60;;;21.90;59.20;;;;;;5016365;28;20472;-55
2022/05/11 09:14:42;;;;;;;10.45;2.33;;;22.00;59.30;;;;;;5015407;28;20493;-55
2022/05/11 09:17:22;;;;;;;6.25;1.95;;;22.00;59.50;;;;;;5016358;28;20393;-55
2022/05/11 09:20:06;;;;;;;9.15;2.60;;;22.00;59.60;;;;;;5013983;28;20054;-55
2022/05/11 09:22:33;;;;;;;9.85;3.08;;;22.00;59.60;;;;;;5015285;28;20046;-56
2022/05/11 09:25:00;;;;;;;10.20;2.67;;;22.00;59.60;;;;;;5015681;28;20835;-55
2022/05/11 09:27:35;;;;;;;11.38;2.78;;;22.00;59.60;;;;;;5014598;28;20112;-56
2022/05/11 09:30:03;;;;;;;6.78;2.60;;;22.00;59.60;;;;;;5015761;28;20046;-56
2022/05/11 09:32:33;;;;;;;10.25;2.67;;;22.00;59.60;;;;;;5016111;28;20042;-55
2022/05/11 09:35:20;;;;;;;10.80;3.05;;;22.10;59.70;;;;;;5015324;28;20562;-55
2022/05/11 09:38:05;;;;;;;8.65;2.55;;;22.10;59.60;;;;;;5015551;28;20494;-55
2022/05/11 09:40:31;;;;;;;9.80;2.72;;;22.10;59.50;;;;;;5015906;28;20049;-55
2022/05/11 09:43:05;;;;;;;11.75;2.75;;;22.10;59.40;;;;;;5014113;28;20046;-55
2022/05/11 09:45:38;;;;;;;9.82;2.70;;;22.10;59.50;;;;;;5015988;28;20056;-55
2022/05/11 09:48:15;;;;;;;9.75;2.67;;;22.10;59.50;;;;;;5015060;28;20481;-55
2022/05/11 09:50:41;;;;;;;7.65;2.95;;;22.10;59.40;;;;;;5014418;28;20049;-56
2022/05/11 09:53:31;;;;;;;8.20;2.90;;;22.10;59.30;;;;;;5015979;28;20049;-55
2022/05/11 09:55:57;;;;;;;7.00;2.13;;;22.20;59.40;;;;;;5014793;28;20042;-56
2022/05/11 09:58:30;;;;;;;8.52;2.95;;;22.20;59.40;;;;;;5014372;28;20108;-55
2022/05/11 10:01:14;;;;;;;9.00;2.72;;;22.20;59.40;;;;;;5015705;28;20145;-55
2022/05/11 10:03:46;;;;;;;9.00;2.45;;;22.20;59.40;;;;;;5014283;28;20038;-55
2022/05/11 10:06:12;;;;;;;8.95;2.40;;;22.20;59.40;;;;;;5014580;28;20054;-55
2022/05/11 10:08:38;;;;;;;7.47;2.50;;;22.20;59.40;;;;;;5014480;28;20112;-55
2022/05/11 10:11:09;;;;;;;5.60;2.00;;;22.20;59.30;;;;;;5013223;28;20042;-55
2022/05/11 10:13:36;;;;;;;7.00;2.50;;;22.20;59.80;;;;;;5015107;28;20413;-55
2022/05/11 10:21:56;;;;;;;6.25;1.92;;;22.20;58.70;;;;;;5014394;28;20084;-55
2022/05/11 10:24:34;;;;;;;8.57;1.80;;;22.30;58.70;;;;;;5012986;28;20397;-56
2022/05/11 10:27:22;;;;;;;6.10;2.13;;;22.30;58.40;;;;;;5015092;28;20049;-53
2022/05/11 10:30:03;;;;;;;8.07;1.70;;;22.30;58.10;;;;;;5014714;28;20410;-53
2022/05/11 10:32:51;;;;;;;7.18;2.08;;;22.30;57.90;;;;;;5014264;28;20045;-53
2022/05/11 10:35:48;;;;;;;5.22;1.67;;;22.20;57.70;;;;;;5014039;28;20484;-53
2022/05/11 10:38:36;;;;;;;5.35;1.80;;;22.30;57.50;;;;;;5012243;28;20068;-54
2022/05/11 10:41:22;;;;;;;6.30;1.70;;;22.30;57.50;;;;;;5013440;28;20148;-54
2022/05/11 10:43:55;;;;;;;7.47;1.60;;;22.30;58.20;;;;;;5013819;28;20092;-53
2022/05/11 10:46:26;;;;;;;5.57;1.73;;;22.30;57.50;;;;;;5013102;28;20065;-53
2022/05/11 10:49:01;;;;;;;6.30;1.75;;;22.30;57.50;;;;;;5014314;28;20049;-53
2022/05/11 10:51:57;;;;;;;7.88;1.92;;;22.30;57.70;;;;;;5012696;28;20078;-53
2022/05/11 10:54:40;;;;;;;6.43;1.50;;;22.30;57.80;;;;;;5013380;28;20525;-54
2022/05/11 10:57:34;;;;;;;5.18;1.77;;;22.30;57.90;;;;;;5013848;28;20485;-53
2022/05/11 11:00:12;;;;;;;6.60;1.73;;;22.30;57.90;;;;;;5012718;28;20065;-53
2022/05/11 11:02:56;;;;;;;6.28;1.45;;;22.30;57.90;;;;;;5013372;28;20472;-53
2022/05/11 11:05:30;;;;;;;5.85;1.55;;;22.40;57.90;;;;;;5012531;28;20046;-53
2022/05/11 11:08:21;;;;;;;5.13;1.30;;;22.40;57.90;;;;;;5014250;28;20049;-53
2022/05/11 11:10:57;;;;;;;6.75;2.15;;;22.40;57.80;;;;;;5012858;28;20054;-53
2022/05/11 11:13:49;;;;;;;5.65;1.55;;;22.40;57.80;;;;;;5012267;28;20112;-53
2022/05/11 11:16:15;;;;;;;5.38;1.40;;;22.40;57.70;;;;;;5013072;28;20111;-53
2022/05/11 11:18:43;;;;;;;5.82;1.45;;;22.40;57.70;;;;;;5012505;28;20500;-53
2022/05/11 11:21:10;;;;;;;4.07;1.30;;;22.40;57.70;;;;;;5012336;28;20046;-53
2022/05/11 11:23:37;;;;;;;4.07;1.40;;;22.40;57.80;;;;;;5013049;28;20056;-53
2022/05/11 11:26:10;;;;;;;6.45;1.40;;;22.40;57.90;;;;;;5013470;28;20042;-54
2022/05/11 11:28:39;;;;;;;4.07;1.10;;;22.40;57.90;;;;;;5011327;28;20049;-53
2022/05/11 11:31:13;;;;;;;5.55;1.38;;;22.40;57.90;;;;;;5013267;28;20056;-54
2022/05/11 11:34:00;;;;;;;4.72;1.13;;;22.40;57.90;;;;;;5012568;28;20052;-53
2022/05/11 11:36:31;;;;;;;6.88;1.30;;;22.40;57.80;;;;;;5010093;28;20050;-53
2022/05/11 11:39:00;;;;;;;7.30;1.42;;;22.40;57.70;;;;;;5013069;28;20046;-53
2022/05/11 11:41:28;;;;;;;4.43;0.82;;;22.40;57.50;;;;;;5009961;28;20053;-53
2022/05/11 11:43:55;;;;;;;4.00;0.90;;;22.40;57.40;;;;;;5013262;28;20041;-53
2022/05/11 11:46:26;;;;;;;9.07;1.42;;;22.40;57.20;;;;;;5013226;28;20121;-53
2022/05/11 11:49:04;;;;;;;5.60;1.27;;;22.40;57.10;;;;;;5008235;28;20049;-53
2022/05/11 11:51:32;;;;;;;6.32;1.20;;;22.40;57.10;;;;;;5008738;28;20045;-53
2022/05/11 11:53:57;;;;;;;4.50;1.30;;;22.40;57.20;;;;;;5008309;28;20046;-53
2022/05/11 11:56:23;;;;;;;5.32;1.10;;;22.40;57.20;;;;;;5011469;28;20038;-53
2022/05/11 11:59:02;;;;;;;4.38;1.10;;;22.50;57.30;;;;;;5012411;28;20188;-54
2022/05/11 12:01:28;;;;;;;4.55;1.10;;;22.50;57.20;;;;;;5013230;28;20065;-53
2022/05/11 12:03:57;;;;;;;6.13;1.15;;;22.50;57.40;;;;;;5011048;28;20512;-52
2022/05/11 12:15:20;;;;;;;7.05;1.30;;;22.50;57.90;;;;;;4998447;28;20054;-54
2022/05/11 12:17:45;;;;;;;3.85;1.08;;;22.50;57.80;;;;;;5012150;28;20072;-58
2022/05/11 12:20:17;;;;;;;5.13;1.10;;;22.50;57.80;;;;;;5011936;28;20452;-60
2022/05/11 12:22:48;;;;;;;11.77;1.17;;;22.50;57.80;;;;;;5012161;28;20161;-57
2022/05/11 12:25:39;;;;;;;4.43;0.93;;;22.60;57.50;;;;;;5012545;28;20489;-57
2022/05/11 12:28:22;;;;;;;5.00;0.88;;;22.50;57.20;;;;;;5012998;28;20543;-56
2022/05/11 12:30:48;;;;;;;8.65;1.33;;;22.60;56.90;;;;;;5012027;28;20481;-58
2022/05/11 19:14:04;;;;;;;3.67;1.05;;;22.40;60.00;;;;;;5066825;27;20766;-57
2022/05/11 19:16:30;;;;;;;4.75;0.80;;;22.40;59.20;;;;;;5049665;28;20041;-57
2022/05/11 19:18:55;;;;;;;4.85;1.10;;;22.50;60.10;;;;;;5044504;28;20439;-57
2022/05/11 19:21:21;;;;;;;5.80;0.90;;;22.40;60.50;;;;;;5049837;28;20061;-57
2022/05/11 19:23:50;;;;;;;4.55;0.95;;;22.40;60.90;;;;;;5035438;28;20126;-57
2022/05/11 19:26:16;;;;;;;4.55;1.00;;;22.40;61.10;;;;;;5039741;28;20037;-57
2022/05/11 19:28:41;;;;;;;6.63;1.20;;;22.50;61.30;;;;;;5046885;28;20438;-57
2022/05/11 19:31:08;;;;;;;5.80;1.02;;;22.50;61.40;;;;;;5050205;28;20125;-57
2022/05/11 19:33:36;;;;;;;5.53;1.10;;;22.50;61.50;;;;;;5042897;28;20087;-57
2022/05/11 19:36:02;;;;;;;4.80;1.00;;;22.50;61.50;;;;;;5038627;28;20312;-58
2022/05/11 19:38:27;;;;;;;4.28;1.30;;;22.50;61.50;;;;;;5050047;28;20121;-57
2022/05/11 19:40:53;;;;;;;4.32;0.80;;;22.50;61.60;;;;;;5034040;28;20527;-58
2022/05/11 19:43:19;;;;;;;9.25;1.08;;;22.50;61.60;;;;;;5038307;28;20037;-57
2022/05/11 19:45:45;;;;;;;4.28;1.08;;;22.50;61.50;;;;;;5034698;28;20068;-57
2022/05/11 19:48:11;;;;;;;5.78;0.77;;;22.50;61.50;;;;;;5036230;28;20477;-57
2022/05/11 19:50:36;;;;;;;3.92;1.17;;;22.50;61.50;;;;;;5034840;28;20450;-57
2022/05/11 19:53:02;;;;;;;3.10;0.80;;;22.50;61.60;;;;;;5034317;28;20136;-57
2022/05/11 19:55:27;;;;;;;3.65;0.90;;;22.60;61.60;;;;;;5035769;28;20041;-57
2022/05/11 19:58:15;;;;;;;6.57;1.02;;;22.50;61.50;;;;;;5034434;28;20045;-57
2022/05/11 20:00:41;;;;;;;5.40;0.90;;;22.60;61.40;;;;;;5034051;28;20489;-57
2022/05/11 20:03:07;;;;;;;3.72;1.27;;;22.50;61.50;;;;;;5035904;28;20041;-57
2022/05/11 20:05:32;;;;;;;6.95;0.80;;;22.60;61.50;;;;;;5034773;28;20044;-57
2022/05/11 20:08:00;;;;;;;3.88;0.80;;;22.60;61.50;;;;;;5036208;28;20072;-57
2022/05/11 20:10:32;;;;;;;4.82;1.00;;;22.60;61.30;;;;;;5035618;28;20045;-57
2022/05/11 20:13:01;;;;;;;8.20;0.95;;;22.60;61.20;;;;;;5041942;28;20143;-57